createdAt,value
2022-12-14T00:02:19.168Z,0.77
2022-12-14T00:07:20.613Z,1.02
2022-12-14T00:12:23.278Z,0.88
2022-12-14T00:17:24.675Z,0.73
2022-12-14T00:22:26.047Z,1.17
2022-12-14T00:27:27.436Z,0.70
2022-12-14T00:32:28.812Z,1.23
2022-12-14T00:37:30.210Z,0.68
2022-12-14T00:42:31.787Z,1.15
2022-12-14T00:47:38.996Z,0.93
2022-12-14T00:52:42.018Z,1.00
2022-12-14T00:57:43.408Z,0.70
2022-12-14T01:02:44.809Z,0.30
2022-12-14T01:07:46.232Z,0.52
2022-12-14T01:12:50.411Z,0.70
2022-12-14T01:17:52.508Z,0.95
2022-12-14T01:22:55.080Z,1.38
2022-12-14T01:27:56.632Z,0.50
2022-12-14T01:32:58.012Z,0.70
2022-12-14T01:37:59.394Z,0.38
2022-12-14T01:43:00.811Z,0.50
2022-12-14T01:48:02.781Z,0.60
2022-12-14T01:53:09.919Z,0.55
2022-12-14T01:58:14.423Z,0.40
2022-12-14T02:03:39.281Z,0.77
2022-12-14T02:08:41.551Z,0.77
2022-12-14T02:13:43.138Z,0.80
2022-12-14T02:18:44.606Z,0.50
2022-12-14T02:24:01.095Z,0.60
2022-12-14T02:29:14.447Z,0.40
2022-12-14T02:34:24.772Z,0.35
2022-12-14T02:39:40.780Z,0.30
2022-12-14T02:44:49.951Z,0.45
2022-12-14T02:50:00.158Z,0.40
2022-12-14T02:55:07.392Z,0.32
2022-12-14T03:00:09.063Z,0.40
2022-12-14T03:05:10.774Z,0.60
2022-12-14T03:10:18.246Z,0.70
2022-12-14T03:15:20.682Z,0.55
2022-12-14T03:20:23.707Z,0.40
2022-12-14T03:25:28.701Z,0.50
2022-12-14T03:30:58.305Z,0.55
2022-12-14T03:35:57.634Z,0.32
2022-12-14T03:41:18.883Z,0.40
2022-12-14T03:46:20.269Z,0.40
2022-12-14T03:51:24.705Z,0.57
2022-12-14T03:56:26.542Z,0.70
2022-12-14T04:01:36.889Z,0.52
2022-12-14T04:06:38.374Z,0.50
2022-12-14T04:12:01.986Z,0.55
2022-12-14T04:17:24.072Z,0.40
2022-12-14T04:22:27.959Z,0.22
2022-12-14T04:27:58.536Z,0.50
2022-12-14T04:33:21.492Z,0.50
2022-12-14T04:38:27.579Z,0.50
2022-12-14T04:43:30.106Z,0.43
2022-12-14T04:48:37.256Z,0.93
2022-12-14T04:53:40.108Z,1.00
2022-12-14T04:58:41.716Z,0.47
2022-12-14T05:03:56.654Z,0.55
2022-12-14T05:09:33.421Z,0.77
2022-12-14T05:14:37.544Z,0.43
2022-12-14T05:19:44.589Z,0.70
2022-12-14T05:24:50.404Z,0.68
2022-12-14T05:29:51.812Z,0.65
2022-12-14T05:34:53.257Z,0.52
2022-12-14T05:39:54.773Z,0.55
2022-12-14T05:44:56.205Z,0.52
2022-12-14T05:49:57.662Z,0.60
2022-12-14T05:55:03.799Z,0.80
2022-12-14T06:00:06.259Z,0.50
2022-12-14T06:05:07.820Z,0.80
2022-12-14T06:10:09.283Z,0.68
2022-12-14T06:15:10.855Z,0.45
2022-12-14T06:20:12.971Z,0.70
2022-12-14T06:25:14.406Z,0.50
2022-12-14T06:30:16.040Z,0.68
2022-12-14T06:35:17.441Z,0.60
2022-12-14T06:40:19.663Z,0.85
2022-12-14T06:45:21.074Z,1.00
2022-12-14T06:50:22.658Z,0.68
2022-12-14T06:55:27.452Z,1.02
2022-12-14T07:00:28.875Z,0.43
2022-12-14T07:05:30.286Z,0.82
2022-12-14T07:10:31.716Z,0.50
2022-12-14T07:15:33.168Z,0.73
2022-12-14T07:20:34.604Z,0.90
2022-12-14T07:25:35.986Z,0.57
2022-12-14T07:30:37.829Z,1.33
2022-12-14T07:35:39.245Z,1.05
2022-12-14T07:40:40.688Z,0.55
2022-12-14T07:45:42.090Z,0.88
2022-12-14T07:50:43.551Z,1.23
2022-12-14T07:55:44.961Z,0.90
2022-12-14T08:00:46.358Z,1.15
2022-12-14T08:05:47.763Z,1.50
2022-12-14T08:10:49.219Z,1.35
2022-12-14T08:15:50.680Z,1.08
2022-12-14T08:20:53.343Z,1.33
2022-12-14T08:25:56.419Z,1.08
2022-12-14T08:30:58.625Z,2.40
2022-12-14T08:36:06.149Z,1.55
2022-12-14T08:41:08.775Z,1.58
2022-12-14T08:46:10.540Z,1.35
2022-12-14T08:51:12.367Z,1.52
2022-12-14T08:56:15.541Z,1.92
2022-12-14T09:01:19.618Z,1.88
2022-12-14T09:06:26.528Z,1.58
2022-12-14T09:11:29.216Z,1.48
2022-12-14T09:16:30.712Z,1.88
2022-12-14T09:21:32.214Z,1.58
2022-12-14T09:26:33.911Z,1.63
2022-12-14T09:31:35.370Z,1.70
2022-12-14T09:36:37.012Z,1.52
2022-12-14T09:41:50.759Z,2.03
2022-12-14T09:47:05.201Z,1.90
2022-12-14T09:52:10.355Z,1.63
2022-12-14T09:57:18.597Z,2.25
2022-12-14T10:02:32.769Z,1.98
2022-12-14T10:07:34.882Z,1.52
2022-12-14T10:12:36.293Z,2.00
2022-12-14T10:17:37.669Z,1.30
2022-12-14T10:22:42.428Z,2.38
2022-12-14T10:28:09.900Z,1.52
2022-12-14T10:33:27.956Z,1.67
2022-12-14T10:38:39.209Z,1.27
2022-12-14T10:43:47.773Z,1.83
2022-12-14T10:49:00.654Z,1.55
2022-12-14T10:54:20.263Z,1.50
2022-12-14T10:59:21.773Z,1.73
2022-12-14T11:04:23.152Z,1.83
2022-12-14T11:09:24.648Z,1.75
2022-12-14T11:14:26.728Z,1.48
2022-12-14T11:19:28.859Z,2.28
2022-12-14T11:24:30.482Z,2.05
2022-12-14T11:29:33.369Z,1.75
2022-12-14T11:34:39.431Z,1.48
2022-12-14T11:39:42.657Z,1.58
2022-12-14T11:44:44.493Z,1.55
2022-12-14T11:49:57.865Z,1.63
2022-12-14T11:54:59.311Z,1.20
2022-12-14T12:00:03.091Z,1.70
2022-12-14T12:05:08.901Z,1.33
2022-12-14T12:10:13.185Z,1.33
2022-12-14T12:15:18.604Z,1.83
2022-12-14T12:20:26.033Z,1.30
2022-12-14T12:25:36.743Z,1.95
2022-12-14T12:30:40.599Z,1.40
2022-12-14T12:35:50.596Z,1.27
2022-12-14T12:40:57.525Z,0.98
2022-12-14T12:46:19.198Z,1.15
2022-12-14T12:51:32.439Z,0.90
2022-12-14T12:56:43.660Z,0.95
2022-12-14T13:01:52.778Z,0.80
2022-12-14T13:07:02.703Z,1.00
2022-12-14T13:17:06.807Z,1.00
2022-12-14T13:22:14.850Z,0.55
2022-12-14T13:27:34.698Z,1.20
2022-12-14T13:32:38.860Z,0.63
2022-12-14T13:37:40.277Z,1.15
2022-12-14T13:42:53.690Z,0.85
2022-12-14T13:47:56.128Z,0.85
2022-12-14T13:53:02.917Z,1.05
2022-12-14T13:58:07.152Z,1.10
2022-12-14T14:03:08.736Z,0.88
2022-12-14T14:08:43.220Z,0.73
2022-12-14T14:13:44.908Z,0.80
2022-12-14T14:18:51.032Z,0.93
2022-12-14T14:24:06.480Z,1.42
2022-12-14T14:29:17.783Z,1.10
2022-12-14T14:34:24.020Z,0.63
2022-12-14T14:44:59.836Z,0.87
2022-12-14T14:50:13.560Z,1.05
2022-12-14T14:55:52.657Z,0.68
2022-12-14T15:01:08.667Z,0.80
2022-12-14T15:06:14.371Z,1.27
2022-12-14T15:11:18.195Z,0.82
2022-12-14T15:16:27.311Z,0.75
2022-12-14T15:21:28.763Z,0.97
2022-12-14T15:26:33.372Z,0.52
2022-12-14T15:31:36.327Z,0.90
2022-12-14T15:36:42.156Z,0.70
2022-12-14T15:41:43.575Z,1.05
2022-12-14T15:46:53.123Z,0.50
2022-12-14T15:56:45.116Z,0.88
2022-12-14T16:01:54.165Z,0.68
2022-12-14T16:07:08.217Z,0.82
2022-12-14T16:12:29.349Z,0.50
2022-12-14T16:22:33.015Z,0.63
2022-12-14T16:27:38.562Z,0.52
2022-12-14T16:32:39.985Z,0.47
2022-12-14T16:37:41.563Z,0.45
2022-12-14T16:42:44.044Z,0.50
2022-12-14T16:48:00.620Z,0.47
2022-12-14T16:53:29.811Z,0.50
2022-12-14T16:58:32.159Z,0.60
2022-12-14T17:03:34.703Z,1.05
2022-12-14T17:08:36.507Z,0.75
2022-12-14T17:13:37.933Z,0.63
2022-12-14T17:18:40.457Z,1.05
2022-12-14T17:23:43.020Z,1.70
2022-12-14T17:28:44.423Z,2.13
2022-12-14T17:33:46.008Z,1.60
2022-12-14T17:38:47.517Z,1.90
2022-12-14T17:43:53.753Z,1.50
2022-12-14T17:49:02.875Z,0.90
2022-12-14T17:54:13.941Z,1.30
2022-12-14T17:59:15.348Z,1.50
2022-12-14T18:04:16.747Z,1.63
2022-12-14T18:09:18.584Z,1.08
2022-12-14T18:14:20.133Z,1.30
2022-12-14T18:19:21.549Z,1.17
2022-12-14T18:24:26.066Z,1.13
2022-12-14T18:29:28.141Z,2.92
2022-12-14T18:34:30.051Z,1.42
2022-12-14T18:39:31.794Z,2.17
2022-12-14T18:44:33.708Z,1.25
2022-12-14T18:49:35.378Z,1.17
2022-12-14T18:54:37.159Z,0.90
2022-12-14T18:59:42.478Z,1.00
2022-12-14T19:04:48.735Z,1.45
2022-12-14T19:09:50.773Z,0.80
2022-12-14T19:14:52.819Z,1.08
2022-12-14T19:19:54.812Z,1.00
2022-12-14T19:24:56.788Z,1.05
2022-12-14T19:29:58.722Z,1.17
2022-12-14T19:35:00.714Z,0.90
2022-12-14T19:40:02.745Z,1.25
2022-12-14T19:45:05.071Z,1.50
2022-12-14T19:50:07.543Z,0.98
2022-12-14T19:55:09.824Z,0.70
2022-12-14T20:00:12.000Z,0.80
2022-12-14T20:05:14.075Z,1.25
2022-12-14T20:10:16.035Z,0.75
2022-12-14T20:15:17.952Z,1.95
2022-12-14T20:20:20.016Z,1.70
2022-12-14T20:25:21.855Z,1.05
2022-12-14T20:30:23.478Z,1.40
2022-12-14T20:35:25.119Z,1.08
2022-12-14T20:40:26.537Z,0.90
2022-12-14T20:45:28.001Z,0.90
2022-12-14T20:50:29.419Z,0.90
2022-12-14T20:55:30.930Z,0.50
2022-12-14T21:00:32.445Z,1.20
2022-12-14T21:05:33.882Z,1.20
2022-12-14T21:10:36.116Z,1.17
2022-12-14T21:15:37.585Z,0.98
2022-12-14T21:20:38.986Z,0.50
2022-12-14T21:25:40.393Z,0.82
2022-12-14T21:30:41.815Z,0.65
2022-12-14T21:35:43.256Z,0.45
2022-12-14T21:41:10.387Z,0.82
2022-12-14T21:46:12.451Z,0.57
2022-12-14T21:51:16.478Z,0.65
2022-12-14T21:56:36.276Z,1.05
2022-12-14T22:01:38.085Z,0.45
2022-12-14T22:06:39.682Z,1.00
2022-12-14T22:11:41.173Z,1.02
2022-12-14T22:16:42.754Z,0.63
2022-12-14T22:21:44.502Z,0.73
2022-12-14T22:26:46.100Z,0.90
2022-12-14T22:31:48.148Z,1.13
2022-12-14T22:36:50.517Z,1.25
2022-12-14T22:41:51.924Z,0.88
2022-12-14T22:46:53.411Z,2.33
2022-12-14T22:51:56.472Z,0.77
2022-12-14T22:57:00.122Z,0.70
2022-12-14T23:02:01.609Z,2.88
2022-12-14T23:07:03.316Z,1.98
2022-12-14T23:12:23.531Z,0.80
2022-12-14T23:17:43.636Z,0.52
2022-12-14T23:28:24.247Z,0.93
2022-12-14T23:33:44.213Z,0.88
2022-12-14T23:39:04.167Z,0.38
2022-12-14T23:49:44.529Z,1.20
2022-12-14T23:55:04.575Z,0.80
